sensor_id;sensor_type;location;lat;lon;timestamp;P1;durP1;ratioP1;P2;durP2;ratioP2
21168;SDS011;10742;51.816;8.662;2023-05-29T00:00:55;4.13;;;2.80;;
21168;SDS011;10742;51.816;8.662;2023-05-29T00:03:58;9.87;;;3.00;;
21168;SDS011;10742;51.816;8.662;2023-05-29T00:07:00;10.10;;;3.13;;
21168;SDS011;10742;51.816;8.662;2023-05-29T00:10:04;12.87;;;3.27;;
21168;SDS011;10742;51.816;8.662;2023-05-29T00:13:07;10.37;;;3.77;;
21168;SDS011;10742;51.816;8.662;2023-05-29T00:16:09;10.00;;;3.60;;
21168;SDS011;10742;51.816;8.662;2023-05-29T00:19:12;17.07;;;4.00;;
21168;SDS011;10742;51.816;8.662;2023-05-29T00:22:16;10.40;;;3.43;;
21168;SDS011;10742;51.816;8.662;2023-05-29T00:25:19;11.03;;;3.80;;
21168;SDS011;10742;51.816;8.662;2023-05-29T00:28:21;12.03;;;3.90;;
21168;SDS011;10742;51.816;8.662;2023-05-29T00:31:24;16.80;;;4.13;;
21168;SDS011;10742;51.816;8.662;2023-05-29T00:34:27;10.83;;;4.00;;
21168;SDS011;10742;51.816;8.662;2023-05-29T00:37:29;13.30;;;3.87;;
21168;SDS011;10742;51.816;8.662;2023-05-29T00:40:32;14.50;;;4.03;;
21168;SDS011;10742;51.816;8.662;2023-05-29T00:43:34;13.07;;;4.33;;
21168;SDS011;10742;51.816;8.662;2023-05-29T00:46:37;11.80;;;4.17;;
21168;SDS011;10742;51.816;8.662;2023-05-29T00:49:39;15.63;;;4.30;;
21168;SDS011;10742;51.816;8.662;2023-05-29T00:52:43;13.97;;;4.30;;
21168;SDS011;10742;51.816;8.662;2023-05-29T00:55:47;17.00;;;4.00;;
21168;SDS011;10742;51.816;8.662;2023-05-29T00:58:51;13.87;;;4.53;;
21168;SDS011;10742;51.816;8.662;2023-05-29T01:01:54;13.50;;;3.87;;
21168;SDS011;10742;51.816;8.662;2023-05-29T01:04:57;15.67;;;3.97;;
21168;SDS011;10742;51.816;8.662;2023-05-29T01:08:00;17.63;;;4.53;;
21168;SDS011;10742;51.816;8.662;2023-05-29T01:11:05;12.37;;;4.00;;
21168;SDS011;10742;51.816;8.662;2023-05-29T01:21:15;15.33;;;3.53;;
21168;SDS011;10742;51.816;8.662;2023-05-29T01:24:37;14.03;;;3.50;;
21168;SDS011;10742;51.816;8.662;2023-05-29T01:28:00;10.93;;;3.63;;
21168;SDS011;10742;51.816;8.662;2023-05-29T01:31:06;12.90;;;3.60;;
21168;SDS011;10742;51.816;8.662;2023-05-29T01:34:09;9.80;;;3.20;;
21168;SDS011;10742;51.816;8.662;2023-05-29T01:37:12;15.77;;;3.60;;
21168;SDS011;10742;51.816;8.662;2023-05-29T01:40:15;13.60;;;3.27;;
21168;SDS011;10742;51.816;8.662;2023-05-29T01:43:19;10.43;;;3.00;;
21168;SDS011;10742;51.816;8.662;2023-05-29T01:46:23;16.20;;;3.93;;
21168;SDS011;10742;51.816;8.662;2023-05-29T01:49:29;15.90;;;3.80;;
21168;SDS011;10742;51.816;8.662;2023-05-29T01:52:35;18.47;;;3.60;;
21168;SDS011;10742;51.816;8.662;2023-05-29T01:55:37;21.10;;;4.10;;
21168;SDS011;10742;51.816;8.662;2023-05-29T01:58:40;21.60;;;3.63;;
21168;SDS011;10742;51.816;8.662;2023-05-29T02:01:43;20.13;;;4.23;;
21168;SDS011;10742;51.816;8.662;2023-05-29T02:04:46;16.57;;;3.70;;
21168;SDS011;10742;51.816;8.662;2023-05-29T02:07:49;21.47;;;3.97;;
21168;SDS011;10742;51.816;8.662;2023-05-29T02:10:51;15.03;;;3.40;;
21168;SDS011;10742;51.816;8.662;2023-05-29T02:13:55;10.80;;;3.00;;
21168;SDS011;10742;51.816;8.662;2023-05-29T02:16:58;13.10;;;3.30;;
21168;SDS011;10742;51.816;8.662;2023-05-29T02:20:01;15.40;;;3.83;;
21168;SDS011;10742;51.816;8.662;2023-05-29T02:23:07;16.33;;;3.27;;
21168;SDS011;10742;51.816;8.662;2023-05-29T02:26:11;20.27;;;4.60;;
21168;SDS011;10742;51.816;8.662;2023-05-29T02:29:15;13.27;;;3.07;;
21168;SDS011;10742;51.816;8.662;2023-05-29T02:32:17;12.37;;;3.30;;
21168;SDS011;10742;51.816;8.662;2023-05-29T02:35:20;15.57;;;3.60;;
21168;SDS011;10742;51.816;8.662;2023-05-29T02:38:24;13.97;;;3.57;;
21168;SDS011;10742;51.816;8.662;2023-05-29T02:41:27;13.53;;;3.23;;
21168;SDS011;10742;51.816;8.662;2023-05-29T02:44:29;12.03;;;3.30;;
21168;SDS011;10742;51.816;8.662;2023-05-29T02:47:32;15.47;;;3.13;;
21168;SDS011;10742;51.816;8.662;2023-05-29T02:50:34;15.87;;;3.47;;
21168;SDS011;10742;51.816;8.662;2023-05-29T02:53:37;12.87;;;3.17;;
21168;SDS011;10742;51.816;8.662;2023-05-29T02:56:40;12.10;;;3.00;;
21168;SDS011;10742;51.816;8.662;2023-05-29T02:59:42;12.33;;;3.03;;
21168;SDS011;10742;51.816;8.662;2023-05-29T03:02:46;10.73;;;3.00;;
21168;SDS011;10742;51.816;8.662;2023-05-29T03:05:48;14.23;;;3.53;;
21168;SDS011;10742;51.816;8.662;2023-05-29T03:08:51;15.93;;;3.70;;
21168;SDS011;10742;51.816;8.662;2023-05-29T03:11:54;17.60;;;3.53;;
21168;SDS011;10742;51.816;8.662;2023-05-29T03:14:56;13.07;;;3.00;;
21168;SDS011;10742;51.816;8.662;2023-05-29T03:18:02;16.27;;;3.50;;
21168;SDS011;10742;51.816;8.662;2023-05-29T03:21:05;17.93;;;3.47;;
21168;SDS011;10742;51.816;8.662;2023-05-29T03:24:08;13.37;;;2.70;;
21168;SDS011;10742;51.816;8.662;2023-05-29T03:27:13;13.37;;;3.10;;
21168;SDS011;10742;51.816;8.662;2023-05-29T03:30:17;13.47;;;3.00;;
21168;SDS011;10742;51.816;8.662;2023-05-29T03:33:24;12.17;;;3.20;;
21168;SDS011;10742;51.816;8.662;2023-05-29T03:36:52;14.87;;;2.90;;
21168;SDS011;10742;51.816;8.662;2023-05-29T03:39:55;13.40;;;2.90;;
21168;SDS011;10742;51.816;8.662;2023-05-29T03:42:58;11.80;;;3.13;;
21168;SDS011;10742;51.816;8.662;2023-05-29T03:46:01;17.90;;;3.30;;
21168;SDS011;10742;51.816;8.662;2023-05-29T03:49:05;11.97;;;2.93;;
21168;SDS011;10742;51.816;8.662;2023-05-29T03:52:10;13.53;;;3.20;;
21168;SDS011;10742;51.816;8.662;2023-05-29T03:55:12;14.63;;;3.27;;
21168;SDS011;10742;51.816;8.662;2023-05-29T03:58:16;13.37;;;3.30;;
21168;SDS011;10742;51.816;8.662;2023-05-29T04:01:20;14.93;;;3.17;;
21168;SDS011;10742;51.816;8.662;2023-05-29T04:04:22;15.17;;;3.20;;
21168;SDS011;10742;51.816;8.662;2023-05-29T04:07:25;16.17;;;3.23;;
21168;SDS011;10742;51.816;8.662;2023-05-29T04:10:28;11.43;;;2.70;;
21168;SDS011;10742;51.816;8.662;2023-05-29T04:13:30;13.27;;;3.10;;
21168;SDS011;10742;51.816;8.662;2023-05-29T04:16:33;16.93;;;2.87;;
21168;SDS011;10742;51.816;8.662;2023-05-29T04:19:36;12.83;;;3.07;;
21168;SDS011;10742;51.816;8.662;2023-05-29T04:22:38;13.27;;;3.20;;
21168;SDS011;10742;51.816;8.662;2023-05-29T04:25:41;13.47;;;3.13;;
21168;SDS011;10742;51.816;8.662;2023-05-29T04:28:48;12.20;;;3.07;;
21168;SDS011;10742;51.816;8.662;2023-05-29T04:31:51;12.70;;;3.30;;
21168;SDS011;10742;51.816;8.662;2023-05-29T04:34:55;13.27;;;3.17;;
21168;SDS011;10742;51.816;8.662;2023-05-29T04:37:58;12.27;;;3.07;;
21168;SDS011;10742;51.816;8.662;2023-05-29T04:41:05;10.03;;;2.87;;
21168;SDS011;10742;51.816;8.662;2023-05-29T04:44:11;13.83;;;3.50;;
21168;SDS011;10742;51.816;8.662;2023-05-29T04:47:21;18.23;;;3.40;;
21168;SDS011;10742;51.816;8.662;2023-05-29T04:50:24;17.63;;;3.30;;
21168;SDS011;10742;51.816;8.662;2023-05-29T04:53:29;13.60;;;3.50;;
21168;SDS011;10742;51.816;8.662;2023-05-29T04:56:33;13.90;;;3.27;;
21168;SDS011;10742;51.816;8.662;2023-05-29T04:59:36;20.37;;;3.53;;
21168;SDS011;10742;51.816;8.662;2023-05-29T05:02:43;19.23;;;3.50;;
21168;SDS011;10742;51.816;8.662;2023-05-29T05:05:47;15.97;;;3.30;;
21168;SDS011;10742;51.816;8.662;2023-05-29T05:08:51;15.63;;;3.10;;
21168;SDS011;10742;51.816;8.662;2023-05-29T05:11:55;18.63;;;3.30;;
21168;SDS011;10742;51.816;8.662;2023-05-29T05:14:58;17.33;;;3.60;;
21168;SDS011;10742;51.816;8.662;2023-05-29T05:18:02;16.53;;;3.27;;
21168;SDS011;10742;51.816;8.662;2023-05-29T05:21:06;16.90;;;3.30;;
21168;SDS011;10742;51.816;8.662;2023-05-29T05:24:11;13.97;;;3.10;;
21168;SDS011;10742;51.816;8.662;2023-05-29T05:27:16;15.83;;;3.50;;
21168;SDS011;10742;51.816;8.662;2023-05-29T05:30:19;16.93;;;3.73;;
21168;SDS011;10742;51.816;8.662;2023-05-29T05:33:23;19.57;;;3.17;;
21168;SDS011;10742;51.816;8.662;2023-05-29T05:36:25;11.13;;;3.60;;
21168;SDS011;10742;51.816;8.662;2023-05-29T05:39:33;13.93;;;3.60;;
21168;SDS011;10742;51.816;8.662;2023-05-29T05:42:36;14.87;;;3.33;;
21168;SDS011;10742;51.816;8.662;2023-05-29T05:45:44;10.77;;;3.23;;
21168;SDS011;10742;51.816;8.662;2023-05-29T05:48:47;15.53;;;3.27;;
21168;SDS011;10742;51.816;8.662;2023-05-29T05:51:51;14.50;;;3.30;;
21168;SDS011;10742;51.816;8.662;2023-05-29T05:54:56;8.53;;;2.90;;
21168;SDS011;10742;51.816;8.662;2023-05-29T05:57:59;12.17;;;3.50;;
21168;SDS011;10742;51.816;8.662;2023-05-29T06:01:03;14.17;;;3.37;;
21168;SDS011;10742;51.816;8.662;2023-05-29T06:04:07;12.27;;;2.93;;
21168;SDS011;10742;51.816;8.662;2023-05-29T06:07:11;12.17;;;3.23;;
21168;SDS011;10742;51.816;8.662;2023-05-29T06:10:13;11.73;;;2.67;;
21168;SDS011;10742;51.816;8.662;2023-05-29T06:13:16;17.27;;;3.40;;
21168;SDS011;10742;51.816;8.662;2023-05-29T06:16:24;11.63;;;2.90;;
21168;SDS011;10742;51.816;8.662;2023-05-29T06:19:26;14.33;;;2.87;;
21168;SDS011;10742;51.816;8.662;2023-05-29T06:22:35;14.77;;;3.07;;
21168;SDS011;10742;51.816;8.662;2023-05-29T06:25:38;14.13;;;3.07;;
21168;SDS011;10742;51.816;8.662;2023-05-29T06:28:41;12.10;;;2.90;;
21168;SDS011;10742;51.816;8.662;2023-05-29T06:31:44;10.93;;;2.80;;
21168;SDS011;10742;51.816;8.662;2023-05-29T06:34:46;10.33;;;2.60;;
21168;SDS011;10742;51.816;8.662;2023-05-29T06:37:49;11.97;;;2.93;;
21168;SDS011;10742;51.816;8.662;2023-05-29T06:40:51;15.33;;;2.73;;
21168;SDS011;10742;51.816;8.662;2023-05-29T06:43:54;16.60;;;3.23;;
21168;SDS011;10742;51.816;8.662;2023-05-29T06:46:56;11.20;;;2.83;;
21168;SDS011;10742;51.816;8.662;2023-05-29T06:50:00;11.20;;;2.77;;
21168;SDS011;10742;51.816;8.662;2023-05-29T06:53:02;14.30;;;3.00;;
21168;SDS011;10742;51.816;8.662;2023-05-29T06:56:22;15.00;;;2.83;;
21168;SDS011;10742;51.816;8.662;2023-05-29T06:59:24;14.70;;;2.60;;
21168;SDS011;10742;51.816;8.662;2023-05-29T07:02:27;10.67;;;2.60;;
21168;SDS011;10742;51.816;8.662;2023-05-29T07:05:32;14.37;;;3.10;;
21168;SDS011;10742;51.816;8.662;2023-05-29T07:08:35;13.70;;;2.97;;
21168;SDS011;10742;51.816;8.662;2023-05-29T07:11:37;12.07;;;2.87;;
21168;SDS011;10742;51.816;8.662;2023-05-29T07:14:41;14.13;;;2.80;;
21168;SDS011;10742;51.816;8.662;2023-05-29T07:17:43;19.90;;;3.00;;
21168;SDS011;10742;51.816;8.662;2023-05-29T07:20:55;15.57;;;3.03;;
21168;SDS011;10742;51.816;8.662;2023-05-29T07:23:59;11.60;;;2.47;;
21168;SDS011;10742;51.816;8.662;2023-05-29T07:27:11;12.03;;;3.10;;
21168;SDS011;10742;51.816;8.662;2023-05-29T07:30:16;17.77;;;3.70;;
21168;SDS011;10742;51.816;8.662;2023-05-29T07:33:20;14.53;;;3.00;;
21168;SDS011;10742;51.816;8.662;2023-05-29T07:36:28;12.23;;;2.67;;
21168;SDS011;10742;51.816;8.662;2023-05-29T07:39:34;17.80;;;3.07;;
21168;SDS011;10742;51.816;8.662;2023-05-29T07:42:46;14.07;;;2.93;;
21168;SDS011;10742;51.816;8.662;2023-05-29T07:45:48;11.73;;;2.87;;
21168;SDS011;10742;51.816;8.662;2023-05-29T07:48:51;13.57;;;2.77;;
21168;SDS011;10742;51.816;8.662;2023-05-29T07:51:54;15.10;;;2.60;;
21168;SDS011;10742;51.816;8.662;2023-05-29T07:54:58;16.50;;;3.30;;
21168;SDS011;10742;51.816;8.662;2023-05-29T07:58:01;14.00;;;2.83;;
21168;SDS011;10742;51.816;8.662;2023-05-29T08:01:04;15.07;;;2.80;;
21168;SDS011;10742;51.816;8.662;2023-05-29T08:04:08;14.70;;;3.23;;
21168;SDS011;10742;51.816;8.662;2023-05-29T08:07:10;13.10;;;3.13;;
21168;SDS011;10742;51.816;8.662;2023-05-29T08:10:13;16.50;;;2.90;;
21168;SDS011;10742;51.816;8.662;2023-05-29T08:13:16;10.23;;;2.77;;
21168;SDS011;10742;51.816;8.662;2023-05-29T08:16:20;15.83;;;3.10;;
21168;SDS011;10742;51.816;8.662;2023-05-29T08:19:24;13.03;;;3.00;;
21168;SDS011;10742;51.816;8.662;2023-05-29T08:22:29;15.17;;;2.87;;
21168;SDS011;10742;51.816;8.662;2023-05-29T08:25:32;19.83;;;3.10;;
21168;SDS011;10742;51.816;8.662;2023-05-29T08:28:34;16.63;;;2.90;;
21168;SDS011;10742;51.816;8.662;2023-05-29T08:31:37;14.37;;;3.00;;
21168;SDS011;10742;51.816;8.662;2023-05-29T08:34:40;13.23;;;3.03;;
21168;SDS011;10742;51.816;8.662;2023-05-29T08:37:43;17.83;;;3.15;;
21168;SDS011;10742;51.816;8.662;2023-05-29T08:40:46;12.37;;;2.97;;
21168;SDS011;10742;51.816;8.662;2023-05-29T08:43:50;13.43;;;3.13;;
21168;SDS011;10742;51.816;8.662;2023-05-29T08:46:55;10.63;;;2.73;;
21168;SDS011;10742;51.816;8.662;2023-05-29T08:49:58;5.82;;;2.60;;
21168;SDS011;10742;51.816;8.662;2023-05-29T08:53:03;14.57;;;3.15;;
21168;SDS011;10742;51.816;8.662;2023-05-29T08:56:07;10.07;;;2.60;;
21168;SDS011;10742;51.816;8.662;2023-05-29T08:59:10;13.27;;;2.83;;
21168;SDS011;10742;51.816;8.662;2023-05-29T09:02:14;13.03;;;3.10;;
21168;SDS011;10742;51.816;8.662;2023-05-29T09:05:17;13.30;;;2.67;;
21168;SDS011;10742;51.816;8.662;2023-05-29T09:08:20;12.10;;;2.80;;
21168;SDS011;10742;51.816;8.662;2023-05-29T09:11:23;16.83;;;2.90;;
21168;SDS011;10742;51.816;8.662;2023-05-29T09:14:38;12.17;;;2.70;;
21168;SDS011;10742;51.816;8.662;2023-05-29T09:17:42;10.87;;;2.67;;
21168;SDS011;10742;51.816;8.662;2023-05-29T09:20:45;11.47;;;2.47;;
21168;SDS011;10742;51.816;8.662;2023-05-29T09:23:49;10.47;;;2.50;;
21168;SDS011;10742;51.816;8.662;2023-05-29T09:26:54;13.83;;;2.70;;
21168;SDS011;10742;51.816;8.662;2023-05-29T09:29:57;11.93;;;2.60;;
21168;SDS011;10742;51.816;8.662;2023-05-29T09:33:00;15.37;;;3.50;;
21168;SDS011;10742;51.816;8.662;2023-05-29T09:36:03;9.73;;;2.43;;
21168;SDS011;10742;51.816;8.662;2023-05-29T09:39:07;9.20;;;2.70;;
21168;SDS011;10742;51.816;8.662;2023-05-29T09:42:18;13.20;;;2.83;;
21168;SDS011;10742;51.816;8.662;2023-05-29T09:45:21;21.63;;;2.67;;
21168;SDS011;10742;51.816;8.662;2023-05-29T09:48:24;10.50;;;2.80;;
21168;SDS011;10742;51.816;8.662;2023-05-29T09:51:28;13.50;;;2.63;;
21168;SDS011;10742;51.816;8.662;2023-05-29T09:54:31;11.88;;;2.80;;
21168;SDS011;10742;51.816;8.662;2023-05-29T09:57:36;12.35;;;2.92;;
21168;SDS011;10742;51.816;8.662;2023-05-29T10:00:41;13.20;;;2.72;;
21168;SDS011;10742;51.816;8.662;2023-05-29T10:03:43;14.05;;;2.75;;
21168;SDS011;10742;51.816;8.662;2023-05-29T10:06:47;12.82;;;2.83;;
21168;SDS011;10742;51.816;8.662;2023-05-29T10:09:52;10.82;;;2.35;;
21168;SDS011;10742;51.816;8.662;2023-05-29T10:13:02;12.35;;;2.90;;
21168;SDS011;10742;51.816;8.662;2023-05-29T10:16:07;11.27;;;2.58;;
21168;SDS011;10742;51.816;8.662;2023-05-29T10:19:16;13.70;;;2.92;;
21168;SDS011;10742;51.816;8.662;2023-05-29T10:22:25;14.27;;;3.10;;
21168;SDS011;10742;51.816;8.662;2023-05-29T10:25:29;13.68;;;3.00;;
21168;SDS011;10742;51.816;8.662;2023-05-29T10:28:34;11.00;;;2.67;;
21168;SDS011;10742;51.816;8.662;2023-05-29T10:35:17;15.02;;;3.17;;
21168;SDS011;10742;51.816;8.662;2023-05-29T10:38:46;10.77;;;2.72;;
21168;SDS011;10742;51.816;8.662;2023-05-29T10:41:49;12.90;;;2.90;;
21168;SDS011;10742;51.816;8.662;2023-05-29T10:44:52;12.27;;;2.72;;
21168;SDS011;10742;51.816;8.662;2023-05-29T10:47:54;15.30;;;3.00;;
21168;SDS011;10742;51.816;8.662;2023-05-29T10:50:57;11.40;;;2.75;;
21168;SDS011;10742;51.816;8.662;2023-05-29T10:54:00;11.20;;;2.88;;
21168;SDS011;10742;51.816;8.662;2023-05-29T10:57:02;11.15;;;2.67;;
21168;SDS011;10742;51.816;8.662;2023-05-29T11:00:06;14.85;;;3.45;;
21168;SDS011;10742;51.816;8.662;2023-05-29T11:03:15;14.30;;;2.70;;
21168;SDS011;10742;51.816;8.662;2023-05-29T11:06:25;11.48;;;2.47;;
21168;SDS011;10742;51.816;8.662;2023-05-29T11:12:55;10.93;;;2.88;;
21168;SDS011;10742;51.816;8.662;2023-05-29T11:19:38;8.52;;;2.58;;
21168;SDS011;10742;51.816;8.662;2023-05-29T11:25:51;9.68;;;2.70;;
21168;SDS011;10742;51.816;8.662;2023-05-29T11:28:56;11.85;;;2.60;;
21168;SDS011;10742;51.816;8.662;2023-05-29T11:35:11;15.20;;;3.28;;
21168;SDS011;10742;51.816;8.662;2023-05-29T11:38:15;11.05;;;2.78;;
21168;SDS011;10742;51.816;8.662;2023-05-29T11:41:18;11.95;;;2.75;;
21168;SDS011;10742;51.816;8.662;2023-05-29T11:44:21;8.52;;;2.30;;
21168;SDS011;10742;51.816;8.662;2023-05-29T11:47:26;8.15;;;2.30;;
21168;SDS011;10742;51.816;8.662;2023-05-29T11:50:29;10.73;;;2.80;;
21168;SDS011;10742;51.816;8.662;2023-05-29T11:53:34;9.52;;;2.70;;
21168;SDS011;10742;51.816;8.662;2023-05-29T11:56:36;13.32;;;2.70;;
21168;SDS011;10742;51.816;8.662;2023-05-29T11:59:42;12.70;;;3.03;;
21168;SDS011;10742;51.816;8.662;2023-05-29T12:02:45;6.70;;;2.50;;
21168;SDS011;10742;51.816;8.662;2023-05-29T12:05:48;8.82;;;2.70;;
21168;SDS011;10742;51.816;8.662;2023-05-29T12:08:55;13.27;;;2.75;;
21168;SDS011;10742;51.816;8.662;2023-05-29T12:12:04;10.15;;;2.58;;
21168;SDS011;10742;51.816;8.662;2023-05-29T12:15:07;11.07;;;2.60;;
21168;SDS011;10742;51.816;8.662;2023-05-29T12:18:11;9.35;;;2.38;;
21168;SDS011;10742;51.816;8.662;2023-05-29T12:21:14;8.80;;;2.67;;
21168;SDS011;10742;51.816;8.662;2023-05-29T12:24:18;9.43;;;2.38;;
21168;SDS011;10742;51.816;8.662;2023-05-29T12:27:22;10.07;;;2.60;;
21168;SDS011;10742;51.816;8.662;2023-05-29T12:30:25;8.52;;;2.53;;
21168;SDS011;10742;51.816;8.662;2023-05-29T12:33:31;8.45;;;2.30;;
21168;SDS011;10742;51.816;8.662;2023-05-29T12:36:34;8.82;;;2.60;;
21168;SDS011;10742;51.816;8.662;2023-05-29T12:39:37;13.85;;;2.80;;
21168;SDS011;10742;51.816;8.662;2023-05-29T12:42:39;10.50;;;2.72;;
21168;SDS011;10742;51.816;8.662;2023-05-29T12:45:42;9.57;;;2.80;;
21168;SDS011;10742;51.816;8.662;2023-05-29T12:48:44;10.93;;;2.90;;
21168;SDS011;10742;51.816;8.662;2023-05-29T12:51:47;13.32;;;2.92;;
21168;SDS011;10742;51.816;8.662;2023-05-29T12:54:50;9.07;;;2.78;;
21168;SDS011;10742;51.816;8.662;2023-05-29T12:57:53;9.02;;;2.67;;
21168;SDS011;10742;51.816;8.662;2023-05-29T13:00:56;11.02;;;2.70;;
21168;SDS011;10742;51.816;8.662;2023-05-29T13:03:59;7.97;;;2.50;;
21168;SDS011;10742;51.816;8.662;2023-05-29T13:07:01;9.82;;;2.80;;
21168;SDS011;10742;51.816;8.662;2023-05-29T13:10:04;8.38;;;2.83;;
21168;SDS011;10742;51.816;8.662;2023-05-29T13:13:08;11.55;;;2.83;;
21168;SDS011;10742;51.816;8.662;2023-05-29T13:16:11;8.95;;;2.85;;
21168;SDS011;10742;51.816;8.662;2023-05-29T13:19:14;8.20;;;2.85;;
21168;SDS011;10742;51.816;8.662;2023-05-29T13:22:16;10.77;;;2.80;;
21168;SDS011;10742;51.816;8.662;2023-05-29T13:25:19;9.70;;;2.60;;
21168;SDS011;10742;51.816;8.662;2023-05-29T13:28:23;9.38;;;2.95;;
21168;SDS011;10742;51.816;8.662;2023-05-29T13:31:26;7.78;;;2.35;;
21168;SDS011;10742;51.816;8.662;2023-05-29T13:34:28;8.40;;;2.75;;
21168;SDS011;10742;51.816;8.662;2023-05-29T13:37:31;14.27;;;3.17;;
21168;SDS011;10742;51.816;8.662;2023-05-29T13:40:53;10.07;;;2.80;;
21168;SDS011;10742;51.816;8.662;2023-05-29T13:44:14;7.60;;;2.50;;
21168;SDS011;10742;51.816;8.662;2023-05-29T13:47:17;9.00;;;2.97;;
21168;SDS011;10742;51.816;8.662;2023-05-29T13:50:19;8.07;;;2.95;;
21168;SDS011;10742;51.816;8.662;2023-05-29T13:53:23;7.07;;;2.58;;
21168;SDS011;10742;51.816;8.662;2023-05-29T13:56:26;9.32;;;3.10;;
21168;SDS011;10742;51.816;8.662;2023-05-29T13:59:30;10.10;;;2.65;;
21168;SDS011;10742;51.816;8.662;2023-05-29T14:02:32;12.13;;;3.00;;
21168;SDS011;10742;51.816;8.662;2023-05-29T14:05:35;7.13;;;2.63;;
21168;SDS011;10742;51.816;8.662;2023-05-29T14:08:37;13.60;;;3.13;;
21168;SDS011;10742;51.816;8.662;2023-05-29T14:11:40;9.68;;;2.97;;
21168;SDS011;10742;51.816;8.662;2023-05-29T14:14:42;9.75;;;2.45;;
21168;SDS011;10742;51.816;8.662;2023-05-29T14:17:45;11.50;;;2.78;;
21168;SDS011;10742;51.816;8.662;2023-05-29T14:20:48;13.07;;;3.30;;
21168;SDS011;10742;51.816;8.662;2023-05-29T14:23:51;16.63;;;3.08;;
21168;SDS011;10742;51.816;8.662;2023-05-29T14:26:53;10.82;;;3.20;;
21168;SDS011;10742;51.816;8.662;2023-05-29T14:29:56;9.27;;;2.53;;
21168;SDS011;10742;51.816;8.662;2023-05-29T14:32:58;14.82;;;3.08;;
21168;SDS011;10742;51.816;8.662;2023-05-29T14:36:03;12.68;;;3.15;;
21168;SDS011;10742;51.816;8.662;2023-05-29T14:39:06;8.57;;;2.83;;
21168;SDS011;10742;51.816;8.662;2023-05-29T14:42:09;12.40;;;3.50;;
21168;SDS011;10742;51.816;8.662;2023-05-29T14:45:11;9.38;;;3.00;;
21168;SDS011;10742;51.816;8.662;2023-05-29T14:48:14;12.63;;;3.15;;
21168;SDS011;10742;51.816;8.662;2023-05-29T14:51:18;14.20;;;3.00;;
21168;SDS011;10742;51.816;8.662;2023-05-29T14:54:22;11.35;;;2.50;;
21168;SDS011;10742;51.816;8.662;2023-05-29T14:57:24;9.50;;;2.70;;
21168;SDS011;10742;51.816;8.662;2023-05-29T15:00:27;12.68;;;3.15;;
21168;SDS011;10742;51.816;8.662;2023-05-29T15:03:29;7.22;;;3.08;;
21168;SDS011;10742;51.816;8.662;2023-05-29T15:06:32;8.77;;;2.97;;
21168;SDS011;10742;51.816;8.662;2023-05-29T15:09:35;10.35;;;2.97;;
21168;SDS011;10742;51.816;8.662;2023-05-29T15:12:38;11.05;;;2.78;;
21168;SDS011;10742;51.816;8.662;2023-05-29T15:15:40;10.00;;;2.80;;
21168;SDS011;10742;51.816;8.662;2023-05-29T15:18:47;7.55;;;2.47;;
21168;SDS011;10742;51.816;8.662;2023-05-29T15:21:50;13.55;;;3.40;;
21168;SDS011;10742;51.816;8.662;2023-05-29T15:24:52;10.90;;;2.75;;
21168;SDS011;10742;51.816;8.662;2023-05-29T15:27:55;9.70;;;2.83;;
21168;SDS011;10742;51.816;8.662;2023-05-29T15:30:58;10.02;;;2.70;;
21168;SDS011;10742;51.816;8.662;2023-05-29T15:34:01;8.43;;;2.60;;
21168;SDS011;10742;51.816;8.662;2023-05-29T15:37:03;8.90;;;2.70;;
21168;SDS011;10742;51.816;8.662;2023-05-29T15:40:06;9.70;;;2.70;;
21168;SDS011;10742;51.816;8.662;2023-05-29T15:43:11;12.48;;;3.00;;
21168;SDS011;10742;51.816;8.662;2023-05-29T15:46:14;8.25;;;2.33;;
21168;SDS011;10742;51.816;8.662;2023-05-29T15:49:16;8.60;;;2.80;;
21168;SDS011;10742;51.816;8.662;2023-05-29T15:52:19;9.30;;;2.97;;
21168;SDS011;10742;51.816;8.662;2023-05-29T15:55:22;10.80;;;3.00;;
21168;SDS011;10742;51.816;8.662;2023-05-29T15:58:25;9.35;;;2.83;;
21168;SDS011;10742;51.816;8.662;2023-05-29T16:01:27;9.65;;;2.85;;
21168;SDS011;10742;51.816;8.662;2023-05-29T16:04:30;10.30;;;2.90;;
21168;SDS011;10742;51.816;8.662;2023-05-29T16:07:34;12.20;;;2.80;;
21168;SDS011;10742;51.816;8.662;2023-05-29T16:10:37;10.38;;;2.72;;
21168;SDS011;10742;51.816;8.662;2023-05-29T16:13:42;10.32;;;2.55;;
21168;SDS011;10742;51.816;8.662;2023-05-29T16:16:45;8.23;;;2.75;;
21168;SDS011;10742;51.816;8.662;2023-05-29T16:19:47;9.23;;;2.83;;
21168;SDS011;10742;51.816;8.662;2023-05-29T16:22:50;7.85;;;2.50;;
21168;SDS011;10742;51.816;8.662;2023-05-29T16:25:52;7.93;;;3.08;;
21168;SDS011;10742;51.816;8.662;2023-05-29T16:28:55;9.20;;;2.70;;
21168;SDS011;10742;51.816;8.662;2023-05-29T16:32:00;9.02;;;2.95;;
21168;SDS011;10742;51.816;8.662;2023-05-29T16:35:03;12.30;;;2.75;;
21168;SDS011;10742;51.816;8.662;2023-05-29T16:38:06;11.55;;;2.83;;
21168;SDS011;10742;51.816;8.662;2023-05-29T16:41:08;15.27;;;2.75;;
21168;SDS011;10742;51.816;8.662;2023-05-29T16:44:11;12.05;;;3.00;;
21168;SDS011;10742;51.816;8.662;2023-05-29T16:47:13;11.93;;;2.90;;
21168;SDS011;10742;51.816;8.662;2023-05-29T16:50:16;14.90;;;3.30;;
21168;SDS011;10742;51.816;8.662;2023-05-29T16:53:18;12.90;;;2.95;;
21168;SDS011;10742;51.816;8.662;2023-05-29T16:56:21;13.10;;;2.70;;
21168;SDS011;10742;51.816;8.662;2023-05-29T16:59:24;13.40;;;2.80;;
21168;SDS011;10742;51.816;8.662;2023-05-29T17:02:27;10.48;;;2.88;;
21168;SDS011;10742;51.816;8.662;2023-05-29T17:05:29;13.88;;;3.30;;
21168;SDS011;10742;51.816;8.662;2023-05-29T17:08:32;14.02;;;3.25;;
21168;SDS011;10742;51.816;8.662;2023-05-29T17:11:34;14.05;;;2.72;;
21168;SDS011;10742;51.816;8.662;2023-05-29T17:14:37;9.45;;;2.75;;
21168;SDS011;10742;51.816;8.662;2023-05-29T17:17:39;6.90;;;2.30;;
21168;SDS011;10742;51.816;8.662;2023-05-29T17:20:42;11.38;;;2.80;;
21168;SDS011;10742;51.816;8.662;2023-05-29T17:24:03;12.35;;;2.75;;
21168;SDS011;10742;51.816;8.662;2023-05-29T17:27:27;8.90;;;2.72;;
21168;SDS011;10742;51.816;8.662;2023-05-29T17:30:55;13.00;;;2.60;;
21168;SDS011;10742;51.816;8.662;2023-05-29T17:34:17;13.70;;;2.63;;
21168;SDS011;10742;51.816;8.662;2023-05-29T17:37:39;15.15;;;2.80;;
21168;SDS011;10742;51.816;8.662;2023-05-29T17:40:41;9.07;;;2.40;;
21168;SDS011;10742;51.816;8.662;2023-05-29T17:43:45;11.02;;;2.30;;
21168;SDS011;10742;51.816;8.662;2023-05-29T17:46:47;9.13;;;2.67;;
21168;SDS011;10742;51.816;8.662;2023-05-29T17:49:50;11.68;;;2.50;;
21168;SDS011;10742;51.816;8.662;2023-05-29T17:52:52;11.88;;;2.60;;
21168;SDS011;10742;51.816;8.662;2023-05-29T17:55:55;13.43;;;3.30;;
21168;SDS011;10742;51.816;8.662;2023-05-29T17:58:57;12.85;;;3.28;;
21168;SDS011;10742;51.816;8.662;2023-05-29T18:02:00;17.27;;;3.23;;
21168;SDS011;10742;51.816;8.662;2023-05-29T18:05:02;13.77;;;2.90;;
21168;SDS011;10742;51.816;8.662;2023-05-29T18:08:07;10.47;;;2.70;;
21168;SDS011;10742;51.816;8.662;2023-05-29T18:11:10;13.03;;;3.00;;
21168;SDS011;10742;51.816;8.662;2023-05-29T18:14:12;9.70;;;2.77;;
21168;SDS011;10742;51.816;8.662;2023-05-29T18:17:15;11.47;;;2.80;;
21168;SDS011;10742;51.816;8.662;2023-05-29T18:20:18;11.67;;;2.60;;
21168;SDS011;10742;51.816;8.662;2023-05-29T18:23:22;11.80;;;3.07;;
21168;SDS011;10742;51.816;8.662;2023-05-29T18:26:24;17.33;;;3.03;;
21168;SDS011;10742;51.816;8.662;2023-05-29T18:29:27;12.07;;;2.50;;
21168;SDS011;10742;51.816;8.662;2023-05-29T18:32:34;7.23;;;2.50;;
21168;SDS011;10742;51.816;8.662;2023-05-29T18:35:38;8.87;;;2.40;;
21168;SDS011;10742;51.816;8.662;2023-05-29T18:38:41;16.93;;;2.83;;
21168;SDS011;10742;51.816;8.662;2023-05-29T18:41:44;15.37;;;3.07;;